Santa Barbara — 3FWW8 — position and weather

sailwx.info

Track history (hours):
 
Tides and Currents Weather Stations Pressure Air Temp Water Temp Dewpoint Dewpoint Depression Visibility Wind Speed Wind Dir Waves Ship Positions

Santa Barbara

Last reported at 2016-Jun-25 10:13 UTC. Time now 2016-Jun-27 02:29 UTC.
Position N 29°53' E 122°46'.

Length 225 m; draft 10.6 m.

Type: Cargo ship. MMSI: 372230000.

Date/timePositionNaut miles runAvg speedWind from/ knotsBaromVisibWave heightAir tempDewpointWater temp
2016-Jun-25 10:13N 29°53' E 122°46'913.6
2016-Jun-25 09:33N 29°48' E 122°37'1313.0
2016-Jun-25 08:33N 29°44' E 122°23'1111.4
2016-Jun-25 07:33N 29°51' E 122°12'10 9.8
2016-Jun-25 06:34N 29°55' E 122°02'7 6.6
2016-Jun-25 05:34N 30°01' E 121°59'0 0.1
2016-Jun-25 01:32N 30°02' E 121°59'0 0.0
2016-Jun-24 16:20N 30°02' E 121°59'0 0.0
2016-Jun-24 15:26N 30°02' E 121°59'0 0.0
2016-Jun-24 10:26N 30°02' E 121°59'0 0.0
2016-Jun-24 09:32N 30°02' E 121°59'0 0.0
2016-Jun-24 08:32N 30°01' E 121°59'0 0.0
2016-Jun-24 07:17N 30°02' E 121°59'0 0.0
2016-Jun-24 01:32N 30°02' E 121°59'0 0.0
2016-Jun-24 00:32N 30°02' E 121°59'0 0.0
2016-Jun-23 23:32N 30°02' E 121°59'0 0.0
2016-Jun-23 22:32N 30°01' E 121°59'0 0.0
2016-Jun-23 21:29N 30°02' E 121°59'0 0.0
2016-Jun-23 19:32N 30°02' E 121°59'0 0.0
2016-Jun-23 18:32N 30°02' E 121°59'0 0.0
2016-Jun-23 16:20N 30°02' E 121°59'1 0.1
2016-Jun-23 10:33N 30°01' E 121°59'7 6.7
2016-Jun-23 09:29N 29°56' E 122°05'7 7.7
2016-Jun-23 08:33N 29°52' E 122°12'8 7.8
2016-Jun-23 07:33N 29°46' E 122°18'6 0.8
2016-Jun-23 00:09N 29°46' E 122°24'0 0.1
2016-Jun-22 23:30N 29°46' E 122°25'0 0.1
2016-Jun-22 21:03N 29°46' E 122°25'0 0.1
2016-Jun-22 20:33N 29°46' E 122°25'0 0.0
2016-Jun-22 19:09N 29°45' E 122°25'0 0.1
2016-Jun-22 16:09N 29°46' E 122°24'0 0.0
2016-Jun-22 12:21N 29°46' E 122°24'0 0.1
2016-Jun-22 11:33N 29°46' E 122°24'0 0.2
2016-Jun-22 09:33N 29°46' E 122°25'5 5.3
2016-Jun-22 08:33N 29°45' E 122°31'6 6.1
2016-Jun-22 07:32N 29°42' E 122°37'2612.7
2016-Jun-22 05:30N 29°16' E 122°36'26113.6
2016-Jun-21 10:21N 25°16' E 120°41'  
2016-Jun-16 02:33N 01°14' E 103°57'2 1.6
2016-Jun-16 01:33N 01°16' E 103°57'2 0.2
2016-Jun-15 14:20N 01°17' E 103°56'0 0.1
2016-Jun-15 13:11N 01°17' E 103°56'1 0.5
2016-Jun-15 11:34N 01°16' E 103°55'5 4.8
2016-Jun-15 10:33N 01°12' E 103°53'  
Track history (hours):
 
Tides and Currents Weather Stations Pressure Air Temp Water Temp Dewpoint Dewpoint Depression Visibility Wind Speed Wind Dir Waves Ship Positions

Santa Barbara

Last reported at 2016-Jun-25 10:13 UTC. Time now 2016-Jun-27 02:29 UTC.
Position N 29°53' E 122°46'.

Length 225 m; draft 10.6 m.

Type: Cargo ship. MMSI: 372230000.

Date/timePositionNaut miles runAvg speedWind from/ knotsBaromVisibWave heightAir tempDewpointWater temp
2016-Jun-25 10:13N 29°53' E 122°46'913.6
2016-Jun-25 09:33N 29°48' E 122°37'1313.0
2016-Jun-25 08:33N 29°44' E 122°23'1111.4
2016-Jun-25 07:33N 29°51' E 122°12'10 9.8
2016-Jun-25 06:34N 29°55' E 122°02'7 6.6
2016-Jun-25 05:34N 30°01' E 121°59'0 0.1
2016-Jun-25 01:32N 30°02' E 121°59'0 0.0
2016-Jun-24 16:20N 30°02' E 121°59'0 0.0
2016-Jun-24 15:26N 30°02' E 121°59'0 0.0
2016-Jun-24 10:26N 30°02' E 121°59'0 0.0
2016-Jun-24 09:32N 30°02' E 121°59'0 0.0
2016-Jun-24 08:32N 30°01' E 121°59'0 0.0
2016-Jun-24 07:17N 30°02' E 121°59'0 0.0
2016-Jun-24 01:32N 30°02' E 121°59'0 0.0
2016-Jun-24 00:32N 30°02' E 121°59'0 0.0
2016-Jun-23 23:32N 30°02' E 121°59'0 0.0
2016-Jun-23 22:32N 30°01' E 121°59'0 0.0
2016-Jun-23 21:29N 30°02' E 121°59'0 0.0
2016-Jun-23 19:32N 30°02' E 121°59'0 0.0
2016-Jun-23 18:32N 30°02' E 121°59'0 0.0
2016-Jun-23 16:20N 30°02' E 121°59'1 0.1
2016-Jun-23 10:33N 30°01' E 121°59'7 6.7
2016-Jun-23 09:29N 29°56' E 122°05'7 7.7
2016-Jun-23 08:33N 29°52' E 122°12'8 7.8
2016-Jun-23 07:33N 29°46' E 122°18'6 0.8
2016-Jun-23 00:09N 29°46' E 122°24'0 0.1
2016-Jun-22 23:30N 29°46' E 122°25'0 0.1
2016-Jun-22 21:03N 29°46' E 122°25'0 0.1
2016-Jun-22 20:33N 29°46' E 122°25'0 0.0
2016-Jun-22 19:09N 29°45' E 122°25'0 0.1
2016-Jun-22 16:09N 29°46' E 122°24'0 0.0
2016-Jun-22 12:21N 29°46' E 122°24'0 0.1
2016-Jun-22 11:33N 29°46' E 122°24'0 0.2
2016-Jun-22 09:33N 29°46' E 122°25'5 5.3
2016-Jun-22 08:33N 29°45' E 122°31'6 6.1
2016-Jun-22 07:32N 29°42' E 122°37'2612.7
2016-Jun-22 05:30N 29°16' E 122°36'26113.6
2016-Jun-21 10:21N 25°16' E 120°41'  
2016-Jun-16 02:33N 01°14' E 103°57'2 1.6
2016-Jun-16 01:33N 01°16' E 103°57'2 0.2
2016-Jun-15 14:20N 01°17' E 103°56'0 0.1
2016-Jun-15 13:11N 01°17' E 103°56'1 0.5
2016-Jun-15 11:34N 01°16' E 103°55'5 4.8
2016-Jun-15 10:33N 01°12' E 103°53'  

Dump ship's entire track history